| time (UTC) | temp F | wind direction | speed knots | gust knots | rain 1hr in | rain 24hr in | rain mn in | humidity % | barometer mb |
| 20260506235950 | 44 | 0.0 | 0.0 | 0.00 | 0.00 | 0.00 | 91 | 1028.8 | |
| 20260506234950 | 44 | 0.0 | 0.0 | 0.00 | 0.00 | 0.00 | 91 | 1028.8 | |
| 20260506233950 | 44 | 0.0 | 0.0 | 0.00 | 0.00 | 0.00 | 91 | 1028.8 | |
| 20260506232950 | 44 | 0.0 | 0.0 | 0.00 | 0.00 | 0.00 | 91 | 1028.8 | |
| 20260506231950 | 44 | 0.0 | 0.0 | 0.00 | 0.00 | 0.00 | 90 | 1028.7 | |
| 20260506230950 | 44 | 0.0 | 0.0 | 0.00 | 0.00 | 0.00 | 90 | 1028.8 | |
| 20260506225950 | 44 | 0.0 | 0.0 | 0.00 | 0.00 | 0.00 | 90 | 1028.8 | |
| 20260506224950 | 45 | 0.0 | 0.0 | 0.00 | 0.00 | 0.00 | 89 | 1028.8 | |
| 20260506223950 | 45 | 0.0 | 0.0 | 0.00 | 0.00 | 0.00 | 89 | 1028.8 | |
| 20260506222950 | 44 | 0.0 | 0.0 | 0.00 | 0.00 | 0.00 | 90 | 1028.8 | |
| 20260506221950 | 45 | 0.0 | 0.0 | 0.00 | 0.00 | 0.00 | 88 | 1028.8 | |
| 20260506220950 | 45 | 0.0 | 0.0 | 0.00 | 0.00 | 0.00 | 88 | 1028.8 | |
| 20260506215950 | 45 | 0.0 | 0.0 | 0.00 | 0.00 | 0.00 | 88 | 1028.9 | |
| 20260506214950 | 46 | 0.0 | 0.0 | 0.00 | 0.00 | 0.00 | 88 | 1028.8 | |
| 20260506213950 | 45 | 0.0 | 0.0 | 0.00 | 0.00 | 0.00 | 89 | 1028.7 | |
| 20260506212950 | 46 | 0.0 | 0.0 | 0.00 | 0.00 | 0.00 | 88 | 1028.8 | |
| 20260506211950 | 46 | 0.0 | 0.0 | 0.00 | 0.00 | 0.00 | 88 | 1028.7 | |
| 20260506210950 | 46 | 0.0 | 0.0 | 0.00 | 0.00 | 0.00 | 88 | 1028.7 | |
| 20260506205950 | 46 | 0.0 | 0.0 | 0.00 | 0.00 | 0.00 | 89 | 1028.8 | |
| 20260506204950 | 47 | 0.0 | 0.0 | 0.00 | 0.00 | 0.00 | 88 | 1028.7 | |
| 20260506203950 | 47 | 0.0 | 0.0 | 0.00 | 0.00 | 0.00 | 88 | 1028.6 | |
| 20260506202950 | 47 | 0.0 | 0.0 | 0.00 | 0.00 | 0.00 | 88 | 1028.6 | |
| 20260506201950 | 47 | 0.0 | 0.0 | 0.00 | 0.00 | 0.00 | 88 | 1028.6 | |
| 20260506200950 | 47 | 0.0 | 0.0 | 0.00 | 0.00 | 0.00 | 88 | 1028.5 | |
| 20260506195950 | 48 | 0.0 | 0.0 | 0.00 | 0.00 | 0.00 | 88 | 1028.5 | |
| 20260506194950 | 48 | 0.0 | 0.0 | 0.00 | 0.00 | 0.00 | 88 | 1028.5 | |
| 20260506193950 | 48 | 0.0 | 0.0 | 0.00 | 0.00 | 0.00 | 88 | 1028.6 | |
| 20260506192950 | 48 | 0.0 | 0.0 | 0.00 | 0.00 | 0.00 | 87 | 1028.5 | |
| 20260506191950 | 48 | 0.0 | 0.0 | 0.00 | 0.00 | 0.00 | 88 | 1028.5 | |
| 20260506190950 | 49 | 0.0 | 0.0 | 0.00 | 0.00 | 0.00 | 86 | 1028.5 | |
| 20260506185950 | 50 | 0.0 | 0.0 | 0.00 | 0.00 | 0.00 | 86 | 1028.4 | |
| 20260506184950 | 50 | 0.0 | 0.0 | 0.00 | 0.00 | 0.00 | 86 | 1028.4 | |
| 20260506183950 | 50 | 0.0 | 0.0 | 0.00 | 0.00 | 0.00 | 85 | 1028.4 | |
| 20260506182950 | 51 | 0.0 | 0.0 | 0.00 | 0.00 | 0.00 | 85 | 1028.3 | |
| 20260506181950 | 51 | 0.0 | 0.0 | 0.00 | 0.00 | 0.00 | 85 | 1028.4 | |
| 20260506180950 | 51 | 0.0 | 0.0 | 0.00 | 0.00 | 0.00 | 83 | 1028.3 | |
| 20260506175950 | 52 | 0.0 | 0.0 | 0.00 | 0.00 | 0.00 | 83 | 1028.3 | |
| 20260506174950 | 53 | 0.0 | 0.0 | 0.00 | 0.00 | 0.00 | 79 | 1028.2 | |
| 20260506173949 | 54 | 0.0 | 0.0 | 0.00 | 0.00 | 0.00 | 78 | 1028.1 | |
| 20260506172950 | 54 | 0.0 | 0.0 | 0.00 | 0.00 | 0.00 | 79 | 1028.1 | |
| 20260506171950 | 55 | 0.0 | 0.0 | 0.00 | 0.00 | 0.00 | 78 | 1028.0 | |
| 20260506170950 | 55 | 0.0 | 0.0 | 0.00 | 0.00 | 0.00 | 77 | 1028.0 | |
| 20260506165950 | 55 | 0.0 | 0.0 | 0.00 | 0.00 | 0.00 | 77 | 1028.1 | |
| 20260506164950 | 56 | 0.0 | 0.0 | 0.00 | 0.00 | 0.00 | 75 | 1028.1 | |
| 20260506163949 | 57 | 0.0 | 0.0 | 0.00 | 0.00 | 0.00 | 73 | 1028.1 | |
| 20260506162949 | 57 | 0.0 | 0.0 | 0.00 | 0.00 | 0.00 | 73 | 1028.2 | |
| 20260506161949 | 59 | 0.0 | 0.0 | 0.00 | 0.00 | 0.00 | 69 | 1028.2 | |
| 20260506160949 | 59 | 0.0 | 0.0 | 0.00 | 0.00 | 0.00 | 69 | 1028.2 | |
| 20260506155949 | 60 | 0.0 | 0.0 | 0.00 | 0.00 | 0.00 | 66 | 1028.2 | |
| 20260506154950 | 61 | 0.0 | 0.0 | 0.00 | 0.00 | 0.00 | 64 | 1028.2 | |
| 20260506153949 | 62 | 0.0 | 0.0 | 0.00 | 0.00 | 0.00 | 62 | 1028.2 | |
| 20260506152949 | 62 | 0.0 | 0.0 | 0.00 | 0.00 | 0.00 | 61 | 1028.1 | |
| 20260506151949 | 63 | 0.0 | 0.0 | 0.00 | 0.00 | 0.00 | 60 | 1028.1 | |
| 20260506150949 | 64 | 0.0 | 0.0 | 0.00 | 0.00 | 0.00 | 59 | 1028.2 | |
| 20260506145949 | 64 | 0.0 | 0.0 | 0.00 | 0.00 | 0.00 | 57 | 1028.2 | |
| 20260506144949 | 65 | 0.0 | 0.0 | 0.00 | 0.00 | 0.00 | 56 | 1028.3 | |
| 20260506143950 | 65 | 0.0 | 0.0 | 0.00 | 0.00 | 0.00 | 55 | 1028.2 | |
| 20260506142949 | 66 | 0.0 | 0.0 | 0.00 | 0.00 | 0.00 | 55 | 1028.2 | |
| 20260506141949 | 66 | 0.0 | 0.0 | 0.00 | 0.00 | 0.00 | 54 | 1028.2 | |
| 20260506140949 | 65 | 0.0 | 0.0 | 0.00 | 0.00 | 0.00 | 53 | 1028.2 | |
| 20260506135949 | 67 | 0.0 | 0.0 | 0.00 | 0.00 | 0.00 | 53 | 1028.3 | |
| 20260506134949 | 67 | 0.0 | 0.0 | 0.00 | 0.00 | 0.00 | 53 | 1028.3 | |
| 20260506133949 | 67 | 0.0 | 0.0 | 0.00 | 0.00 | 0.00 | 54 | 1028.2 | |
| 20260506132949 | 67 | 0.0 | 0.0 | 0.00 | 0.00 | 0.00 | 54 | 1028.2 | |
| 20260506131949 | 67 | 0.0 | 0.0 | 0.00 | 0.00 | 0.00 | 54 | 1028.3 | |
| 20260506130949 | 68 | 0.0 | 0.0 | 0.00 | 0.00 | 0.00 | 53 | 1028.3 | |
| 20260506125949 | 68 | 0.0 | 0.0 | 0.00 | 0.00 | 0.00 | 54 | 1028.3 | |
| 20260506124949 | 68 | 0.0 | 0.0 | 0.00 | 0.00 | 0.00 | 54 | 1028.3 | |
| 20260506123949 | 69 | 0.0 | 0.0 | 0.00 | 0.00 | 0.00 | 53 | 1028.3 | |
| 20260506122949 | 68 | 0.0 | 0.0 | 0.00 | 0.00 | 0.00 | 54 | 1028.4 | |
| 20260506121949 | 68 | 0.0 | 0.0 | 0.00 | 0.00 | 0.00 | 55 | 1028.5 | |
| 20260506120949 | 68 | 0.0 | 0.0 | 0.00 | 0.00 | 0.00 | 55 | 1028.6 | |
| 20260506115949 | 68 | 0.0 | 0.0 | 0.00 | 0.00 | 0.00 | 55 | 1028.7 | |
| 20260506114949 | 67 | 0.0 | 0.0 | 0.00 | 0.00 | 0.00 | 56 | 1028.7 | |
| 20260506113949 | 66 | 0.0 | 0.0 | 0.00 | 0.00 | 0.00 | 56 | 1028.7 | |
| 20260506112949 | 64 | 0.0 | 0.0 | 0.00 | 0.00 | 0.00 | 60 | 1028.6 | |
| 20260506111949 | 66 | 0.0 | 0.0 | 0.00 | 0.00 | 0.00 | 58 | 1028.6 | |
| 20260506110949 | 69 | 0.0 | 0.0 | 0.00 | 0.00 | 0.00 | 58 | 1028.7 | |
| 20260506105949 | 67 | 0.0 | 0.0 | 0.00 | 0.00 | 0.00 | 57 | 1028.7 | |
| 20260506104949 | 66 | 0.0 | 0.0 | 0.00 | 0.00 | 0.00 | 59 | 1028.8 | |
| 20260506103949 | 68 | 0.0 | 0.0 | 0.00 | 0.00 | 0.00 | 57 | 1028.9 | |
| 20260506102949 | 66 | 0.0 | 0.0 | 0.00 | 0.00 | 0.00 | 60 | 1028.8 | |
| 20260506101949 | 66 | 0.0 | 0.0 | 0.00 | 0.00 | 0.00 | 60 | 1028.8 | |
| 20260506100949 | 66 | 0.0 | 0.0 | 0.00 | 0.00 | 0.00 | 61 | 1028.8 | |
| 20260506095949 | 64 | 0.0 | 0.0 | 0.00 | 0.00 | 0.00 | 63 | 1028.8 | |
| 20260506094949 | 63 | 0.0 | 0.0 | 0.00 | 0.00 | 0.00 | 63 | 1028.8 | |
| 20260506093949 | 64 | 0.0 | 0.0 | 0.00 | 0.00 | 0.00 | 63 | 1028.9 | |
| 20260506092949 | 64 | 0.0 | 0.0 | 0.00 | 0.00 | 0.00 | 63 | 1029.0 | |
| 20260506091949 | 63 | 0.0 | 0.0 | 0.00 | 0.00 | 0.00 | 64 | 1029.0 | |
| 20260506090949 | 64 | 0.0 | 0.0 | 0.00 | 0.00 | 0.00 | 64 | 1029.1 | |
| 20260506085949 | 62 | 0.0 | 0.0 | 0.00 | 0.00 | 0.00 | 69 | 1029.1 | |
| 20260506084949 | 62 | 0.0 | 0.0 | 0.00 | 0.00 | 0.00 | 70 | 1029.1 | |
| 20260506083949 | 62 | 0.0 | 0.0 | 0.00 | 0.00 | 0.00 | 69 | 1029.0 | |
| 20260506082949 | 62 | 0.0 | 0.0 | 0.00 | 0.00 | 0.00 | 65 | 1029.1 | |
| 20260506081949 | 62 | 0.0 | 0.0 | 0.00 | 0.00 | 0.00 | 66 | 1029.0 | |
| 20260506080949 | 62 | 0.0 | 0.0 | 0.00 | 0.00 | 0.00 | 69 | 1029.0 | |
| 20260506072949 | 61 | 0.0 | 0.0 | 0.00 | 0.00 | 0.00 | 66 | 1028.9 | |
| 20260506071949 | 61 | 0.0 | 0.0 | 0.00 | 0.00 | 0.00 | 72 | 1029.0 | |
| 20260506070949 | 59 | 0.0 | 0.0 | 0.00 | 0.00 | 0.00 | 74 | 1028.9 | |
| 20260506061949 | 55 | 0.0 | 0.0 | 0.00 | 0.00 | 0.00 | 86 | 1028.8 | |
| 20260506060949 | 55 | 0.0 | 0.0 | 0.00 | 0.00 | 0.00 | 88 | 1028.9 | |
| 20260506050949 | 53 | 0.0 | 0.0 | 0.00 | 0.00 | 0.00 | 95 | 1028.8 | |
| 20260506044949 | 53 | 0.0 | 0.0 | 0.00 | 0.00 | 0.00 | 95 | 1028.6 | |
| 20260506043949 | 52 | 0.0 | 0.0 | 0.00 | 0.00 | 0.00 | 97 | 1028.5 | |
| 20260506042949 | 52 | 0.0 | 0.0 | 0.00 | 0.00 | 0.00 | 98 | 1028.5 | |
| 20260506041948 | 52 | 0.0 | 0.0 | 0.00 | 0.00 | 0.00 | 98 | 1028.5 | |
| 20260506040948 | 51 | 0.0 | 0.0 | 0.00 | 0.00 | 0.00 | 98 | 1028.4 | |
| 20260506035948 | 51 | 0.0 | 0.0 | 0.00 | 0.00 | 0.00 | 99 | 1028.3 | |
| 20260506034948 | 51 | 0.0 | 0.0 | 0.00 | 0.00 | 0.00 | 99 | 1028.2 | |
| 20260506033948 | 51 | 0.0 | 0.0 | 0.00 | 0.00 | 0.00 | 99 | 1028.1 | |
| 20260506032948 | 51 | 0.0 | 0.0 | 0.00 | 0.00 | 0.00 | 99 | 1028.1 | |
| 20260506031948 | 51 | 0.0 | 0.0 | 0.00 | 0.00 | 0.00 | 99 | 1028.0 | |
| 20260506030948 | 51 | 0.0 | 0.0 | 0.00 | 0.00 | 0.00 | 99 | 1028.0 | |
| 20260506025948 | 51 | 0.0 | 0.0 | 0.00 | 0.00 | 0.00 | 99 | 1027.8 | |
| 20260506024948 | 51 | 0.0 | 0.0 | 0.00 | 0.00 | 0.00 | 98 | 1027.7 | |
| 20260506023948 | 51 | 0.0 | 0.0 | 0.00 | 0.00 | 0.00 | 99 | 1027.6 | |
| 20260506022948 | 51 | 0.0 | 0.0 | 0.00 | 0.00 | 0.00 | 99 | 1027.5 | |
| 20260506021948 | 51 | 0.0 | 0.0 | 0.00 | 0.00 | 0.00 | 98 | 1027.5 | |
| 20260506020948 | 51 | 0.0 | 0.0 | 0.00 | 0.00 | 0.00 | 98 | 1027.4 | |
| 20260506015948 | 51 | 0.0 | 0.0 | 0.00 | 0.00 | 0.00 | 99 | 1027.3 | |
| 20260506014948 | 51 | 0.0 | 0.0 | 0.00 | 0.00 | 0.00 | 98 | 1027.2 | |
| 20260506013948 | 51 | 0.0 | 0.0 | 0.00 | 0.00 | 0.00 | 98 | 1027.1 | |
| 20260506012948 | 51 | 0.0 | 0.0 | 0.00 | 0.00 | 0.00 | 98 | 1027.2 | |
| 20260506011948 | 51 | 0.0 | 0.0 | 0.00 | 0.00 | 0.00 | 98 | 1027.2 | |
| 20260506010948 | 51 | 0.0 | 0.0 | 0.00 | 0.00 | 0.00 | 98 | 1027.2 | |
| 20260506005948 | 51 | 0.0 | 0.0 | 0.00 | 0.00 | 0.00 | 98 | 1027.1 | |
| 20260506004948 | 51 | 0.0 | 0.0 | 0.00 | 0.00 | 0.00 | 98 | 1027.1 | |
| 20260506003948 | 51 | 0.0 | 0.0 | 0.00 | 0.00 | 0.00 | 98 | 1027.2 | |
| 20260506002948 | 51 | 0.0 | 0.0 | 0.00 | 0.00 | 0.00 | 97 | 1027.1 | |
| 20260506001948 | 51 | 0.0 | 0.0 | 0.00 | 0.00 | 0.00 | 98 | 1027.1 | |
| 20260506000948 | 51 | 0.0 | 0.0 | 0.00 | 0.00 | 0.00 | 98 | 1027.1 |